Flight Track Log - Related Links

Times and Time Zones

All times are in EDT time to prevent confusion due to time zone crossing. See the LT912 flight status page for this flight to view local times or setup timezone preferences in your user account.

Time Position Orientation Groundspeed Altitude Reporting Facility
EDT Latitude Longitude Course Direction KTS MPH feet Rate Location/Type
Thu 09:24:57 PM 53.2833 -105.7833 329° Northwest 160 184 5,500  Level Edmonton Center
Thu 09:25:57 PM 53.3167 -105.8333 318° Northwest 150 173 6,800 1,300 Climbing Edmonton Center
Thu 09:26:57 PM 53.3500 -105.9000 310° West 170 196 8,100 1,350 Climbing Edmonton Center
Thu 09:27:57 PM 53.3833 -105.9500 318° Northwest 160 184 9,500 1,350 Climbing Edmonton Center
Thu 09:28:00 PM 53.5002 -106.0898 321° Northwest  Level FlightAware Approximate
Thu 09:28:57 PM 53.4167 -105.9833 329° Northwest 170 196 10,800  Level Edmonton Center
Thu 09:29:00 PM 53.5492 -106.1571 321° Northwest  Level FlightAware Approximate
Thu 09:29:57 PM 53.4667 -106.0500 322° Northwest 170 196 12,200  Level Edmonton Center
Thu 09:30:57 PM 53.5000 -106.1000 318° Northwest 180 207 13,500 1,200 Climbing Edmonton Center
Thu 09:31:57 PM 53.5333 -106.1667 310° West 180 207 14,600 1,000 Climbing Edmonton Center
Thu 09:32:57 PM 53.5833 -106.2167 329° Northwest 180 207 15,500 1,000 Climbing Edmonton Center
Thu 09:33:57 PM 53.6167 -106.2833 310° West 180 207 16,600 950 Climbing Edmonton Center
Thu 09:34:57 PM 53.6500 -106.3333 318° Northwest 200 230 17,400 1,000 Climbing Edmonton Center
Thu 09:35:57 PM 53.7000 -106.4000 322° Northwest 190 219 18,600 1,050 Climbing Edmonton Center
Thu 09:36:57 PM 53.7333 -106.4500 318° Northwest 190 219 19,500 850 Climbing Edmonton Center
Thu 09:37:57 PM 53.7833 -106.5167 322° Northwest 200 230 20,300 850 Climbing Edmonton Center
Thu 09:38:57 PM 53.8167 -106.5667 318° Northwest 190 219 21,200 800 Climbing Edmonton Center
Thu 09:39:57 PM 53.8667 -106.6333 322° Northwest 190 219 21,900 400 Climbing Edmonton Center
Thu 09:40:57 PM 53.9000 -106.6833 319° Northwest 200 230 22,000 50 Climbing Edmonton Center
Thu 09:41:57 PM 53.9500 -106.7667 316° Northwest 210 242 22,000  Level Edmonton Center
Thu 09:42:57 PM 54.0000 -106.8333 322° Northwest 220 253 22,000  Level Edmonton Center
Thu 09:43:57 PM 54.0333 -106.9000 310° West 230 265 22,000  Level Edmonton Center
Thu 09:44:57 PM 54.1000 -106.9833 324° Northwest 230 265 22,000  Level Edmonton Center
Thu 09:45:57 PM 54.1500 -107.0500 322° Northwest 230 265 22,000  Level Edmonton Center
Thu 09:46:57 PM 54.1667 -107.1333 289° West 230 265 22,000  Level Edmonton Center
Thu 09:47:57 PM 54.2167 -107.2000 322° Northwest 230 265 22,000  Level Edmonton Center
Thu 09:48:57 PM 54.2667 -107.2833 316° Northwest 230 265 22,000  Level Edmonton Center
Thu 09:49:57 PM 54.3167 -107.3500 322° Northwest 220 253 22,000  Level Edmonton Center
Thu 09:50:57 PM 54.3667 -107.4333 316° Northwest 230 265 22,000  Level Edmonton Center
Thu 09:51:57 PM 54.4167 -107.5000 322° Northwest 220 253 22,000  Level Edmonton Center
Thu 09:52:57 PM 54.4667 -107.5500 330° Northwest 220 253 22,000  Level Edmonton Center
Thu 09:53:57 PM 54.5000 -107.6500 300° West 220 253 22,000  Level Edmonton Center
Thu 09:54:57 PM 54.5500 -107.7000 330° Northwest 220 253 22,000  Level Edmonton Center
Thu 09:55:57 PM 54.6000 -107.8000 311° West 220 253 22,000  Level Edmonton Center
Thu 09:56:57 PM 54.6500 -107.8667 322° Northwest 220 253 22,000  Level Edmonton Center
Thu 09:57:57 PM 54.7000 -107.9167 330° Northwest 220 253 22,000  Level Edmonton Center
Thu 09:58:57 PM 54.7500 -108.0167 311° West 220 253 22,000  Level Edmonton Center
Thu 09:59:57 PM 54.7833 -108.0833 311° West 220 253 22,000  Level Edmonton Center
Thu 10:00:57 PM 54.8333 -108.1667 316° Northwest 230 265 22,000  Level Edmonton Center
Thu 10:01:57 PM 54.8833 -108.2333 323° Northwest 230 265 22,000  Level Edmonton Center
Thu 10:02:57 PM 54.9333 -108.3000 323° Northwest 220 253 22,000  Level Edmonton Center
Thu 10:03:57 PM 54.9667 -108.3833 305° West 220 253 22,000  Level Edmonton Center
Thu 10:04:57 PM 55.0167 -108.4500 323° Northwest 230 265 22,000  Level Edmonton Center
Thu 10:05:57 PM 55.0667 -108.5167 323° Northwest 220 253 22,000  Level Edmonton Center
Thu 10:06:57 PM 55.1167 -108.6000 316° Northwest 230 265 22,000  Level Edmonton Center
Thu 10:07:57 PM 55.1667 -108.6667 323° Northwest 230 265 22,000  Level Edmonton Center
Thu 10:08:57 PM 55.2000 -108.7667 300° West 230 265 22,000  Level Edmonton Center
Thu 10:09:57 PM 55.2500 -108.8333 323° Northwest 230 265 22,000  Level Edmonton Center
Thu 10:10:57 PM 55.3000 -108.9167 317° Northwest 230 265 22,000  Level Edmonton Center
Thu 10:11:57 PM 55.3500 -108.9833 323° Northwest 230 265 22,000  Level Edmonton Center
Thu 10:12:57 PM 55.4000 -109.0833 311° West 230 265 22,000  Level Edmonton Center
Thu 10:13:57 PM 55.4500 -109.1500 323° Northwest 230 265 22,000  Level Edmonton Center
Thu 10:14:57 PM 55.4833 -109.2333 305° West 230 265 22,000  Level Edmonton Center
Thu 10:15:57 PM 55.5333 -109.3000 323° Northwest 230 265 22,000  Level Edmonton Center
Thu 10:16:57 PM 55.5833 -109.4000 312° West 230 265 22,000  Level Edmonton Center
Thu 10:17:57 PM 55.6333 -109.4667 323° Northwest 230 265 22,000  Level Edmonton Center
Thu 10:18:57 PM 55.6833 -109.5667 312° West 230 265 22,000  Level Edmonton Center
Thu 10:19:57 PM 55.7333 -109.6333 323° Northwest 230 265 22,000  Level Edmonton Center
Thu 10:20:57 PM 55.7833 -109.7333 312° West 230 265 22,000  Level Edmonton Center
Thu 10:21:57 PM 55.8333 -109.8000 323° Northwest 230 265 22,000 -350 Level Edmonton Center
Thu 10:22:57 PM 55.8667 -109.8833 306° West 230 265 21,300 -950 Descending Edmonton Center
Thu 10:23:57 PM 55.9167 -109.9500 323° Northwest 260 299 20,100 -1,200 Descending Edmonton Center
Thu 10:24:57 PM 55.9833 -110.0500 320° Northwest 270 311 18,900 -1,350 Descending Edmonton Center
Thu 10:25:57 PM 56.0333 -110.1500 312° West 280 322 17,400 -1,350 Descending Edmonton Center
Thu 10:26:57 PM 56.1000 -110.2500 320° Northwest 280 322 16,200 -1,250 Descending Edmonton Center
Thu 10:27:57 PM 56.1500 -110.3500 312° West 270 311 14,900 -1,350 Descending Edmonton Center
Thu 10:28:57 PM 56.1833 -110.4500 301° West 260 299 13,500 -1,450 Descending Edmonton Center
Thu 10:29:57 PM 56.2500 -110.5500 320° Northwest 260 299 12,000 -1,450 Descending Edmonton Center
Thu 10:30:57 PM 56.3000 -110.6167 324° Northwest 260 299 10,600 -1,400 Descending Edmonton Center
Thu 10:31:57 PM 56.3500 -110.7167 312° West 260 299 9,200 -2,150 Descending Edmonton Center
Thu 10:32:57 PM 56.4167 -110.8167 320° Northwest 270 311 6,300 -2,050 Descending Edmonton Center
Thu 10:33:57 PM 56.4500 -110.9167 301° West 250 288 5,100 -1,150 Descending Edmonton Center
Thu 10:34:57 PM 56.5000 -110.9833 324° Northwest 230 265 4,000 -1,350 Descending Edmonton Center
Thu 10:35:57 PM 56.5667 -111.0333 338° Northwest 210 242 2,400 -950 Descending Edmonton Center
Thu 10:36:57 PM 56.6000 -111.0667 331° Northwest 180 207 2,100 -150 Descending Edmonton Center
Thu 10:37:57 PM 56.6333 -111.1333 312° West 160 184 2,100 -250 Level Edmonton Center
Thu 10:38:57 PM 56.6333 -111.2000 270° West 150 173 1,600 -400 Descending Edmonton Center
Thu 10:39:57 PM 56.6333 -111.2333 270° West 90 104 1,300 -300 Descending Edmonton Center

Login

Don't have an account? Register now (free) for customized features, flight alerts, and more!